sensor_id;sensor_type;location;lat;lon;timestamp;pressure;altitude;pressure_sealevel;temperature;humidity
63281;BME280;49406;51.044;3.766;2023-02-28T00:01:40;103140.89;;;0.29;87.85
63281;BME280;49406;51.044;3.766;2023-02-28T00:04:15;103137.25;;;0.22;88.21
63281;BME280;49406;51.044;3.766;2023-02-28T00:06:49;103136.68;;;0.16;88.67
63281;BME280;49406;51.044;3.766;2023-02-28T00:09:24;103137.73;;;0.28;88.78
63281;BME280;49406;51.044;3.766;2023-02-28T00:11:59;103137.81;;;0.37;88.33
63281;BME280;49406;51.044;3.766;2023-02-28T00:14:36;103135.36;;;0.41;88.21
63281;BME280;49406;51.044;3.766;2023-02-28T00:17:11;103134.66;;;0.39;87.78
63281;BME280;49406;51.044;3.766;2023-02-28T00:19:46;103132.16;;;0.25;88.09
63281;BME280;49406;51.044;3.766;2023-02-28T00:22:22;103132.48;;;0.21;89.04
63281;BME280;49406;51.044;3.766;2023-02-28T00:24:57;103133.38;;;0.19;89.23
63281;BME280;49406;51.044;3.766;2023-02-28T00:27:32;103132.56;;;0.14;89.10
63281;BME280;49406;51.044;3.766;2023-02-28T00:30:10;103134.17;;;0.07;89.23
63281;BME280;49406;51.044;3.766;2023-02-28T00:32:45;103132.95;;;0.03;89.61
63281;BME280;49406;51.044;3.766;2023-02-28T00:35:20;103133.33;;;-0.03;90.13
63281;BME280;49406;51.044;3.766;2023-02-28T00:37:55;103134.30;;;-0.07;89.95
63281;BME280;49406;51.044;3.766;2023-02-28T00:40:30;103135.50;;;-0.13;90.16
63281;BME280;49406;51.044;3.766;2023-02-28T00:43:05;103135.08;;;-0.18;91.06
63281;BME280;49406;51.044;3.766;2023-02-28T00:45:39;103139.95;;;-0.08;91.12
63281;BME280;49406;51.044;3.766;2023-02-28T00:48:14;103136.84;;;-0.00;90.54
63281;BME280;49406;51.044;3.766;2023-02-28T00:50:51;103136.57;;;-0.01;90.30
63281;BME280;49406;51.044;3.766;2023-02-28T00:53:25;103138.77;;;-0.03;91.17
63281;BME280;49406;51.044;3.766;2023-02-28T00:56:00;103142.54;;;0.00;91.60
63281;BME280;49406;51.044;3.766;2023-02-28T00:58:35;103144.08;;;-0.02;91.93
63281;BME280;49406;51.044;3.766;2023-02-28T01:01:10;103143.48;;;-0.03;92.48
63281;BME280;49406;51.044;3.766;2023-02-28T01:03:45;103136.75;;;-0.03;92.57
63281;BME280;49406;51.044;3.766;2023-02-28T01:06:19;103141.33;;;-0.02;93.14
63281;BME280;49406;51.044;3.766;2023-02-28T01:08:54;103143.41;;;-0.01;92.99
63281;BME280;49406;51.044;3.766;2023-02-28T01:11:29;103145.30;;;-0.02;92.91
63281;BME280;49406;51.044;3.766;2023-02-28T01:14:04;103146.23;;;-0.06;92.80
63281;BME280;49406;51.044;3.766;2023-02-28T01:16:39;103152.59;;;-0.09;94.30
63281;BME280;49406;51.044;3.766;2023-02-28T01:19:14;103149.44;;;0.03;93.70
63281;BME280;49406;51.044;3.766;2023-02-28T01:21:48;103148.70;;;0.14;93.06
63281;BME280;49406;51.044;3.766;2023-02-28T01:24:23;103153.50;;;0.19;93.61
63281;BME280;49406;51.044;3.766;2023-02-28T01:26:58;103151.86;;;0.28;93.62
63281;BME280;49406;51.044;3.766;2023-02-28T01:29:31;103153.86;;;0.28;93.91
63281;BME280;49406;51.044;3.766;2023-02-28T01:32:06;103152.30;;;0.29;93.69
63281;BME280;49406;51.044;3.766;2023-02-28T01:34:41;103149.72;;;0.27;93.79
63281;BME280;49406;51.044;3.766;2023-02-28T01:37:15;103150.77;;;0.27;93.91
63281;BME280;49406;51.044;3.766;2023-02-28T01:39:50;103150.72;;;0.27;94.45
63281;BME280;49406;51.044;3.766;2023-02-28T01:42:25;103147.55;;;0.24;93.89
63281;BME280;49406;51.044;3.766;2023-02-28T01:45:03;103143.70;;;0.34;93.40
63281;BME280;49406;51.044;3.766;2023-02-28T01:47:38;103144.77;;;0.34;93.09
63281;BME280;49406;51.044;3.766;2023-02-28T01:50:16;103141.48;;;0.29;93.40
63281;BME280;49406;51.044;3.766;2023-02-28T01:52:53;103140.99;;;0.22;93.90
63281;BME280;49406;51.044;3.766;2023-02-28T01:55:29;103139.57;;;0.17;95.12
63281;BME280;49406;51.044;3.766;2023-02-28T01:58:07;103138.42;;;0.12;94.96
63281;BME280;49406;51.044;3.766;2023-02-28T02:00:42;103139.51;;;0.07;95.27
63281;BME280;49406;51.044;3.766;2023-02-28T02:03:19;103138.30;;;0.01;95.51
63281;BME280;49406;51.044;3.766;2023-02-28T02:05:55;103134.17;;;-0.05;95.84
63281;BME280;49406;51.044;3.766;2023-02-28T02:08:28;103130.24;;;-0.11;96.27
63281;BME280;49406;51.044;3.766;2023-02-28T02:11:03;103128.20;;;-0.00;96.24
63281;BME280;49406;51.044;3.766;2023-02-28T02:13:59;103128.27;;;0.04;96.06
63281;BME280;49406;51.044;3.766;2023-02-28T02:16:39;103129.86;;;0.03;96.50
63281;BME280;49406;51.044;3.766;2023-02-28T02:19:41;103126.34;;;0.04;97.00
63281;BME280;49406;51.044;3.766;2023-02-28T02:22:47;103124.13;;;0.04;96.87
63281;BME280;49406;51.044;3.766;2023-02-28T02:25:30;103118.88;;;-0.07;97.16
63281;BME280;49406;51.044;3.766;2023-02-28T02:34:46;103112.60;;;-0.33;99.38
63281;BME280;49406;51.044;3.766;2023-02-28T02:37:29;103112.15;;;-0.38;99.13
63281;BME280;49406;51.044;3.766;2023-02-28T02:40:12;103106.08;;;-0.47;98.86
63281;BME280;49406;51.044;3.766;2023-02-28T02:42:51;103108.73;;;-0.55;99.18
63281;BME280;49406;51.044;3.766;2023-02-28T02:45:33;103108.98;;;-0.54;99.91
63281;BME280;49406;51.044;3.766;2023-02-28T02:48:13;103102.34;;;-0.46;99.38
63281;BME280;49406;51.044;3.766;2023-02-28T02:50:52;103107.98;;;-0.46;99.11
63281;BME280;49406;51.044;3.766;2023-02-28T02:53:30;103110.71;;;-0.54;98.30
63281;BME280;49406;51.044;3.766;2023-02-28T02:56:08;103114.42;;;-0.67;98.42
63281;BME280;49406;51.044;3.766;2023-02-28T02:58:45;103113.60;;;-0.76;100.00
63281;BME280;49406;51.044;3.766;2023-02-28T03:01:24;103114.64;;;-0.79;100.00
63281;BME280;49406;51.044;3.766;2023-02-28T03:04:03;103118.14;;;-0.80;100.00
63281;BME280;49406;51.044;3.766;2023-02-28T03:06:38;103117.31;;;-0.80;100.00
63281;BME280;49406;51.044;3.766;2023-02-28T03:09:13;103112.73;;;-0.85;100.00
63281;BME280;49406;51.044;3.766;2023-02-28T03:11:49;103119.08;;;-0.93;100.00
63281;BME280;49406;51.044;3.766;2023-02-28T03:14:42;103112.91;;;-0.97;100.00
63281;BME280;49406;51.044;3.766;2023-02-28T03:17:29;103114.75;;;-0.82;100.00
63281;BME280;49406;51.044;3.766;2023-02-28T03:20:12;103122.05;;;-0.83;100.00
63281;BME280;49406;51.044;3.766;2023-02-28T03:22:55;103120.30;;;-0.85;100.00
63281;BME280;49406;51.044;3.766;2023-02-28T03:25:35;103108.92;;;-0.89;100.00
63281;BME280;49406;51.044;3.766;2023-02-28T03:28:17;103115.33;;;-0.97;100.00
63281;BME280;49406;51.044;3.766;2023-02-28T03:30:56;103115.51;;;-1.00;100.00
63281;BME280;49406;51.044;3.766;2023-02-28T03:33:37;103114.31;;;-1.04;100.00
63281;BME280;49406;51.044;3.766;2023-02-28T03:36:17;103108.04;;;-1.07;100.00
63281;BME280;49406;51.044;3.766;2023-02-28T03:38:57;103110.81;;;-1.06;100.00
63281;BME280;49406;51.044;3.766;2023-02-28T03:41:38;103112.02;;;-1.05;100.00
63281;BME280;49406;51.044;3.766;2023-02-28T03:44:21;103111.30;;;-1.01;100.00
63281;BME280;49406;51.044;3.766;2023-02-28T03:47:02;103109.08;;;-0.96;100.00
63281;BME280;49406;51.044;3.766;2023-02-28T03:49:40;103111.35;;;-0.93;100.00
63281;BME280;49406;51.044;3.766;2023-02-28T03:52:19;103116.67;;;-0.91;100.00
63281;BME280;49406;51.044;3.766;2023-02-28T03:54:58;103116.55;;;-0.88;100.00
63281;BME280;49406;51.044;3.766;2023-02-28T03:57:39;103110.30;;;-0.87;100.00
63281;BME280;49406;51.044;3.766;2023-02-28T04:00:20;103110.48;;;-0.83;100.00
63281;BME280;49406;51.044;3.766;2023-02-28T04:02:56;103117.37;;;-0.64;100.00
63281;BME280;49406;51.044;3.766;2023-02-28T04:05:31;103116.64;;;-0.50;100.00
63281;BME280;49406;51.044;3.766;2023-02-28T04:08:07;103113.65;;;-0.39;100.00
63281;BME280;49406;51.044;3.766;2023-02-28T04:10:43;103114.65;;;-0.29;100.00
63281;BME280;49406;51.044;3.766;2023-02-28T04:13:19;103116.83;;;-0.18;100.00
63281;BME280;49406;51.044;3.766;2023-02-28T04:15:54;103117.94;;;-0.08;100.00
63281;BME280;49406;51.044;3.766;2023-02-28T04:18:29;103118.73;;;-0.05;100.00
63281;BME280;49406;51.044;3.766;2023-02-28T04:21:04;103121.35;;;-0.02;100.00
63281;BME280;49406;51.044;3.766;2023-02-28T04:23:38;103123.19;;;0.01;100.00
63281;BME280;49406;51.044;3.766;2023-02-28T04:26:13;103124.08;;;0.04;100.00
63281;BME280;49406;51.044;3.766;2023-02-28T04:28:48;103122.96;;;0.05;100.00
63281;BME280;49406;51.044;3.766;2023-02-28T04:31:23;103125.11;;;0.08;100.00
63281;BME280;49406;51.044;3.766;2023-02-28T04:33:58;103119.75;;;0.07;100.00
63281;BME280;49406;51.044;3.766;2023-02-28T04:36:33;103126.27;;;0.09;100.00
63281;BME280;49406;51.044;3.766;2023-02-28T04:39:07;103130.96;;;0.12;100.00
63281;BME280;49406;51.044;3.766;2023-02-28T04:41:43;103137.92;;;0.28;100.00
63281;BME280;49406;51.044;3.766;2023-02-28T04:44:17;103133.40;;;0.34;100.00
63281;BME280;49406;51.044;3.766;2023-02-28T04:46:53;103138.20;;;0.44;100.00
63281;BME280;49406;51.044;3.766;2023-02-28T04:49:28;103138.83;;;0.55;100.00
63281;BME280;49406;51.044;3.766;2023-02-28T04:52:03;103137.84;;;0.59;100.00
63281;BME280;49406;51.044;3.766;2023-02-28T04:54:38;103140.23;;;0.63;100.00
63281;BME280;49406;51.044;3.766;2023-02-28T04:57:13;103142.67;;;0.70;100.00
63281;BME280;49406;51.044;3.766;2023-02-28T04:59:48;103141.40;;;0.75;100.00
63281;BME280;49406;51.044;3.766;2023-02-28T05:02:22;103143.70;;;0.78;100.00
63281;BME280;49406;51.044;3.766;2023-02-28T05:04:57;103141.12;;;0.82;100.00
63281;BME280;49406;51.044;3.766;2023-02-28T05:07:32;103139.46;;;1.01;99.94
63281;BME280;49406;51.044;3.766;2023-02-28T05:10:09;103138.80;;;1.12;99.54
63281;BME280;49406;51.044;3.766;2023-02-28T05:12:43;103148.88;;;1.15;99.39
63281;BME280;49406;51.044;3.766;2023-02-28T05:15:18;103151.52;;;1.15;99.52
63281;BME280;49406;51.044;3.766;2023-02-28T05:17:53;103147.38;;;1.17;99.62
63281;BME280;49406;51.044;3.766;2023-02-28T05:20:28;103146.46;;;1.19;99.45
63281;BME280;49406;51.044;3.766;2023-02-28T05:23:03;103144.11;;;1.22;99.45
63281;BME280;49406;51.044;3.766;2023-02-28T05:25:38;103148.77;;;1.24;99.37
63281;BME280;49406;51.044;3.766;2023-02-28T05:28:12;103146.73;;;1.39;98.74
63281;BME280;49406;51.044;3.766;2023-02-28T05:30:47;103148.64;;;1.47;98.08
63281;BME280;49406;51.044;3.766;2023-02-28T05:33:22;103144.67;;;1.52;97.74
63281;BME280;49406;51.044;3.766;2023-02-28T05:35:57;103135.73;;;1.54;97.56
63281;BME280;49406;51.044;3.766;2023-02-28T05:38:31;103147.52;;;1.50;97.73
63281;BME280;49406;51.044;3.766;2023-02-28T05:41:10;103147.44;;;1.49;97.71
63281;BME280;49406;51.044;3.766;2023-02-28T05:43:45;103146.30;;;1.50;97.44
63281;BME280;49406;51.044;3.766;2023-02-28T05:46:20;103140.91;;;1.50;97.53
63281;BME280;49406;51.044;3.766;2023-02-28T05:48:55;103137.96;;;1.58;97.14
63281;BME280;49406;51.044;3.766;2023-02-28T05:51:31;103138.64;;;1.67;96.59
63281;BME280;49406;51.044;3.766;2023-02-28T05:54:07;103140.48;;;1.70;96.43
63281;BME280;49406;51.044;3.766;2023-02-28T05:56:42;103140.25;;;1.71;96.51
63281;BME280;49406;51.044;3.766;2023-02-28T05:59:19;103139.36;;;1.67;96.95
63281;BME280;49406;51.044;3.766;2023-02-28T06:01:54;103145.65;;;1.66;97.08
63281;BME280;49406;51.044;3.766;2023-02-28T06:04:28;103147.39;;;1.64;97.22
63281;BME280;49406;51.044;3.766;2023-02-28T06:07:01;103148.14;;;1.65;97.20
63281;BME280;49406;51.044;3.766;2023-02-28T06:09:36;103149.95;;;1.76;96.63
63281;BME280;49406;51.044;3.766;2023-02-28T06:12:12;103156.71;;;1.81;96.34
63281;BME280;49406;51.044;3.766;2023-02-28T06:14:47;103157.87;;;1.78;96.44
63281;BME280;49406;51.044;3.766;2023-02-28T06:17:21;103160.30;;;1.74;96.67
63281;BME280;49406;51.044;3.766;2023-02-28T06:19:56;103165.36;;;1.73;96.76
63281;BME280;49406;51.044;3.766;2023-02-28T06:22:31;103168.46;;;1.73;96.86
63281;BME280;49406;51.044;3.766;2023-02-28T06:25:08;103167.11;;;1.73;96.81
63281;BME280;49406;51.044;3.766;2023-02-28T06:27:43;103174.30;;;1.74;96.87
63281;BME280;49406;51.044;3.766;2023-02-28T06:30:18;103171.55;;;1.87;96.33
63281;BME280;49406;51.044;3.766;2023-02-28T06:32:55;103169.38;;;1.94;95.88
63281;BME280;49406;51.044;3.766;2023-02-28T06:35:30;103165.16;;;1.94;96.04
63281;BME280;49406;51.044;3.766;2023-02-28T06:38:04;103166.92;;;1.90;96.12
63281;BME280;49406;51.044;3.766;2023-02-28T06:40:39;103179.33;;;1.90;96.35
63281;BME280;49406;51.044;3.766;2023-02-28T06:43:14;103182.80;;;1.90;96.54
63281;BME280;49406;51.044;3.766;2023-02-28T06:45:48;103178.90;;;1.89;96.71
63281;BME280;49406;51.044;3.766;2023-02-28T06:48:23;103168.84;;;1.88;96.60
63281;BME280;49406;51.044;3.766;2023-02-28T06:51:05;103176.88;;;1.94;96.35
63281;BME280;49406;51.044;3.766;2023-02-28T06:53:40;103172.58;;;2.04;95.69
63281;BME280;49406;51.044;3.766;2023-02-28T06:56:16;103174.69;;;2.07;95.70
63281;BME280;49406;51.044;3.766;2023-02-28T06:58:51;103184.04;;;2.05;95.81
63281;BME280;49406;51.044;3.766;2023-02-28T07:01:26;103181.69;;;2.02;96.20
63281;BME280;49406;51.044;3.766;2023-02-28T07:04:02;103178.89;;;2.01;96.26
63281;BME280;49406;51.044;3.766;2023-02-28T07:06:36;103179.20;;;2.01;96.35
63281;BME280;49406;51.044;3.766;2023-02-28T07:09:11;103185.94;;;2.01;96.23
63281;BME280;49406;51.044;3.766;2023-02-28T07:11:45;103188.30;;;2.09;95.67
63281;BME280;49406;51.044;3.766;2023-02-28T07:14:20;103177.34;;;2.21;94.73
63281;BME280;49406;51.044;3.766;2023-02-28T07:16:55;103185.93;;;2.25;94.21
63281;BME280;49406;51.044;3.766;2023-02-28T07:19:30;103187.70;;;2.23;93.63
63281;BME280;49406;51.044;3.766;2023-02-28T07:22:04;103182.63;;;2.22;93.47
63281;BME280;49406;51.044;3.766;2023-02-28T07:24:39;103182.48;;;2.23;93.31
63281;BME280;49406;51.044;3.766;2023-02-28T07:27:14;103183.23;;;2.23;92.62
63281;BME280;49406;51.044;3.766;2023-02-28T07:29:56;103171.63;;;2.25;92.51
63281;BME280;49406;51.044;3.766;2023-02-28T07:32:34;103169.56;;;2.28;92.31
63281;BME280;49406;51.044;3.766;2023-02-28T07:35:11;103171.73;;;2.33;91.88
63281;BME280;49406;51.044;3.766;2023-02-28T07:37:45;103171.75;;;2.46;90.73
63281;BME280;49406;51.044;3.766;2023-02-28T07:40:20;103181.98;;;2.51;90.53
63281;BME280;49406;51.044;3.766;2023-02-28T07:42:55;103185.18;;;2.48;90.88
63281;BME280;49406;51.044;3.766;2023-02-28T07:45:30;103179.75;;;2.49;91.15
63281;BME280;49406;51.044;3.766;2023-02-28T07:48:07;103181.80;;;2.51;90.93
63281;BME280;49406;51.044;3.766;2023-02-28T07:50:43;103183.92;;;2.56;90.80
63281;BME280;49406;51.044;3.766;2023-02-28T07:53:21;103184.30;;;2.75;89.58
63281;BME280;49406;51.044;3.766;2023-02-28T07:55:58;103176.09;;;2.85;89.21
63281;BME280;49406;51.044;3.766;2023-02-28T07:58:33;103176.56;;;2.88;89.11
63281;BME280;49406;51.044;3.766;2023-02-28T08:01:09;103180.20;;;2.91;88.97
63281;BME280;49406;51.044;3.766;2023-02-28T08:03:44;103176.12;;;2.94;87.65
63281;BME280;49406;51.044;3.766;2023-02-28T08:06:20;103173.64;;;2.95;86.62
63281;BME280;49406;51.044;3.766;2023-02-28T08:08:56;103175.42;;;3.14;86.80
63281;BME280;49406;51.044;3.766;2023-02-28T08:11:30;103179.45;;;3.28;86.01
63281;BME280;49406;51.044;3.766;2023-02-28T08:14:05;103179.45;;;3.33;84.78
63281;BME280;49406;51.044;3.766;2023-02-28T08:16:40;103172.83;;;3.47;85.58
63281;BME280;49406;51.044;3.766;2023-02-28T08:19:16;103173.36;;;3.58;84.27
63281;BME280;49406;51.044;3.766;2023-02-28T08:21:50;103175.98;;;3.63;83.82
63281;BME280;49406;51.044;3.766;2023-02-28T08:24:25;103169.28;;;3.66;82.48
63281;BME280;49406;51.044;3.766;2023-02-28T08:27:00;103165.98;;;3.85;82.90
63281;BME280;49406;51.044;3.766;2023-02-28T08:29:35;103168.27;;;4.00;82.15
63281;BME280;49406;51.044;3.766;2023-02-28T08:32:10;103167.17;;;3.99;80.94
63281;BME280;49406;51.044;3.766;2023-02-28T08:34:45;103171.05;;;3.96;81.04
63281;BME280;49406;51.044;3.766;2023-02-28T08:37:20;103169.77;;;3.94;80.38
63281;BME280;49406;51.044;3.766;2023-02-28T08:39:55;103170.36;;;3.90;79.18
63281;BME280;49406;51.044;3.766;2023-02-28T08:42:29;103172.17;;;3.86;78.89
63281;BME280;49406;51.044;3.766;2023-02-28T08:45:05;103176.50;;;3.80;78.99
63281;BME280;49406;51.044;3.766;2023-02-28T08:47:40;103176.42;;;3.76;77.86
63281;BME280;49406;51.044;3.766;2023-02-28T08:50:15;103174.20;;;3.72;79.07
63281;BME280;49406;51.044;3.766;2023-02-28T08:52:50;103177.95;;;3.67;78.44
63281;BME280;49406;51.044;3.766;2023-02-28T08:55:24;103176.38;;;3.62;77.94
63281;BME280;49406;51.044;3.766;2023-02-28T08:57:59;103179.08;;;3.63;78.40
63281;BME280;49406;51.044;3.766;2023-02-28T09:00:34;103179.85;;;3.67;77.91
63281;BME280;49406;51.044;3.766;2023-02-28T09:03:09;103183.65;;;3.76;77.66
63281;BME280;49406;51.044;3.766;2023-02-28T09:05:53;103191.39;;;3.68;78.00
63281;BME280;49406;51.044;3.766;2023-02-28T09:08:30;103194.88;;;3.61;77.23
63281;BME280;49406;51.044;3.766;2023-02-28T09:11:05;103195.81;;;3.58;77.05
63281;BME280;49406;51.044;3.766;2023-02-28T09:13:40;103193.97;;;3.49;76.18
63281;BME280;49406;51.044;3.766;2023-02-28T09:16:16;103195.21;;;3.45;76.80
63281;BME280;49406;51.044;3.766;2023-02-28T09:18:52;103190.25;;;3.50;76.89
63281;BME280;49406;51.044;3.766;2023-02-28T09:21:27;103188.73;;;3.60;75.18
63281;BME280;49406;51.044;3.766;2023-02-28T09:24:02;103187.80;;;3.52;74.11
63281;BME280;49406;51.044;3.766;2023-02-28T09:26:35;103182.08;;;3.48;74.59
63281;BME280;49406;51.044;3.766;2023-02-28T09:29:11;103183.55;;;3.47;73.42
63281;BME280;49406;51.044;3.766;2023-02-28T09:31:47;103180.39;;;3.51;74.37
63281;BME280;49406;51.044;3.766;2023-02-28T09:34:22;103177.68;;;3.51;72.18
63281;BME280;49406;51.044;3.766;2023-02-28T09:36:57;103180.12;;;3.47;70.94
63281;BME280;49406;51.044;3.766;2023-02-28T09:39:32;103175.85;;;3.50;71.76
63281;BME280;49406;51.044;3.766;2023-02-28T09:42:11;103176.16;;;3.54;71.91
63281;BME280;49406;51.044;3.766;2023-02-28T09:44:49;103173.14;;;3.57;71.55
63281;BME280;49406;51.044;3.766;2023-02-28T09:47:29;103177.11;;;3.55;69.59
63281;BME280;49406;51.044;3.766;2023-02-28T09:50:16;103184.13;;;3.56;69.20
63281;BME280;49406;51.044;3.766;2023-02-28T09:52:52;103184.90;;;3.57;66.79
63281;BME280;49406;51.044;3.766;2023-02-28T09:55:30;103180.20;;;3.57;65.84
63281;BME280;49406;51.044;3.766;2023-02-28T09:58:18;103172.35;;;3.59;66.53
63281;BME280;49406;51.044;3.766;2023-02-28T10:00:59;103168.58;;;3.59;66.51
63281;BME280;49406;51.044;3.766;2023-02-28T10:03:41;103167.55;;;3.66;67.57
63281;BME280;49406;51.044;3.766;2023-02-28T10:06:19;103169.07;;;3.75;66.94
63281;BME280;49406;51.044;3.766;2023-02-28T10:09:00;103171.02;;;3.80;66.80
63281;BME280;49406;51.044;3.766;2023-02-28T10:11:35;103170.36;;;3.88;63.93
63281;BME280;49406;51.044;3.766;2023-02-28T10:14:15;103174.05;;;3.91;63.16
63281;BME280;49406;51.044;3.766;2023-02-28T10:16:53;103176.19;;;3.95;61.91
63281;BME280;49406;51.044;3.766;2023-02-28T10:19:35;103174.77;;;3.99;61.63
63281;BME280;49406;51.044;3.766;2023-02-28T10:22:15;103170.89;;;4.03;59.98
63281;BME280;49406;51.044;3.766;2023-02-28T10:24:53;103178.10;;;4.07;60.26
63281;BME280;49406;51.044;3.766;2023-02-28T10:27:31;103172.77;;;4.17;60.72
63281;BME280;49406;51.044;3.766;2023-02-28T10:30:08;103164.27;;;4.31;61.39
63281;BME280;49406;51.044;3.766;2023-02-28T10:32:49;103161.88;;;4.44;60.01
63281;BME280;49406;51.044;3.766;2023-02-28T10:35:25;103153.62;;;4.50;57.56
63281;BME280;49406;51.044;3.766;2023-02-28T10:38:04;103156.08;;;4.53;56.92
63281;BME280;49406;51.044;3.766;2023-02-28T10:40:47;103155.71;;;4.63;54.67
63281;BME280;49406;51.044;3.766;2023-02-28T10:43:24;103155.05;;;4.73;56.00
63281;BME280;49406;51.044;3.766;2023-02-28T10:46:00;103150.95;;;4.79;53.19
63281;BME280;49406;51.044;3.766;2023-02-28T10:48:38;103151.29;;;4.94;52.15
63281;BME280;49406;51.044;3.766;2023-02-28T10:51:18;103148.90;;;5.04;49.44
63281;BME280;49406;51.044;3.766;2023-02-28T10:53:54;103138.37;;;5.21;48.89
63281;BME280;49406;51.044;3.766;2023-02-28T10:56:29;103128.13;;;5.29;48.07
63281;BME280;49406;51.044;3.766;2023-02-28T10:59:20;103124.41;;;5.48;48.75
63281;BME280;49406;51.044;3.766;2023-02-28T11:01:58;103126.76;;;5.84;48.37
63281;BME280;49406;51.044;3.766;2023-02-28T11:04:36;103132.27;;;5.81;47.27
63281;BME280;49406;51.044;3.766;2023-02-28T11:07:21;103120.94;;;5.70;47.70
63281;BME280;49406;51.044;3.766;2023-02-28T11:09:58;103117.17;;;5.60;48.21
63281;BME280;49406;51.044;3.766;2023-02-28T11:12:36;103114.79;;;5.58;48.19
63281;BME280;49406;51.044;3.766;2023-02-28T11:15:24;103114.19;;;5.62;48.35
63281;BME280;49406;51.044;3.766;2023-02-28T11:18:02;103110.55;;;5.64;48.25
63281;BME280;49406;51.044;3.766;2023-02-28T11:20:38;103099.48;;;5.73;49.12
63281;BME280;49406;51.044;3.766;2023-02-28T11:23:15;103103.14;;;5.80;48.47
63281;BME280;49406;51.044;3.766;2023-02-28T11:25:54;103099.25;;;5.86;48.71
63281;BME280;49406;51.044;3.766;2023-02-28T11:28:33;103102.21;;;5.76;47.35
63281;BME280;49406;51.044;3.766;2023-02-28T11:31:17;103093.23;;;5.68;48.41
63281;BME280;49406;51.044;3.766;2023-02-28T11:33:56;103095.63;;;5.59;47.64
63281;BME280;49406;51.044;3.766;2023-02-28T11:36:33;103094.66;;;5.50;48.06
63281;BME280;49406;51.044;3.766;2023-02-28T11:39:19;103092.36;;;5.49;48.33
63281;BME280;49406;51.044;3.766;2023-02-28T11:42:07;103092.80;;;5.45;47.64
63281;BME280;49406;51.044;3.766;2023-02-28T11:44:53;103090.34;;;5.45;47.22
63281;BME280;49406;51.044;3.766;2023-02-28T11:47:35;103085.33;;;5.48;47.24
63281;BME280;49406;51.044;3.766;2023-02-28T11:50:26;103085.61;;;5.50;46.37
63281;BME280;49406;51.044;3.766;2023-02-28T11:53:04;103089.77;;;5.55;46.63
63281;BME280;49406;51.044;3.766;2023-02-28T11:55:47;103084.18;;;5.59;45.49
63281;BME280;49406;51.044;3.766;2023-02-28T11:58:30;103081.83;;;5.61;46.10
63281;BME280;49406;51.044;3.766;2023-02-28T12:01:20;103074.08;;;5.64;45.48
63281;BME280;49406;51.044;3.766;2023-02-28T12:04:09;103074.46;;;5.62;44.91
63281;BME280;49406;51.044;3.766;2023-02-28T12:06:49;103069.32;;;5.60;44.98
63281;BME280;49406;51.044;3.766;2023-02-28T12:09:40;103063.45;;;5.69;45.71
63281;BME280;49406;51.044;3.766;2023-02-28T12:12:26;103058.88;;;5.68;44.30
63281;BME280;49406;51.044;3.766;2023-02-28T12:15:29;103059.88;;;5.57;42.68
63281;BME280;49406;51.044;3.766;2023-02-28T12:18:20;103054.81;;;5.56;43.09
63281;BME280;49406;51.044;3.766;2023-02-28T12:21:04;103060.04;;;5.62;42.63
63281;BME280;49406;51.044;3.766;2023-02-28T12:24:05;103053.13;;;5.49;41.80
63281;BME280;49406;51.044;3.766;2023-02-28T12:26:43;103048.42;;;5.49;42.37
63281;BME280;49406;51.044;3.766;2023-02-28T12:29:21;103041.54;;;5.44;41.84
63281;BME280;49406;51.044;3.766;2023-02-28T12:32:01;103042.98;;;5.39;41.58
63281;BME280;49406;51.044;3.766;2023-02-28T12:34:41;103038.48;;;5.35;41.20
63281;BME280;49406;51.044;3.766;2023-02-28T12:37:22;103042.11;;;5.37;41.20
63281;BME280;49406;51.044;3.766;2023-02-28T12:40:03;103032.73;;;5.53;41.39
63281;BME280;49406;51.044;3.766;2023-02-28T12:42:42;103030.08;;;5.60;40.59
63281;BME280;49406;51.044;3.766;2023-02-28T12:45:22;103030.13;;;5.58;39.88
63281;BME280;49406;51.044;3.766;2023-02-28T12:48:01;103025.31;;;5.56;40.39
63281;BME280;49406;51.044;3.766;2023-02-28T12:50:38;103021.35;;;5.65;40.70
63281;BME280;49406;51.044;3.766;2023-02-28T12:53:17;103020.73;;;5.71;39.21
63281;BME280;49406;51.044;3.766;2023-02-28T12:56:01;103015.80;;;5.70;38.55
63281;BME280;49406;51.044;3.766;2023-02-28T12:58:42;103004.30;;;5.72;38.69
63281;BME280;49406;51.044;3.766;2023-02-28T13:01:34;103004.27;;;5.78;38.84
63281;BME280;49406;51.044;3.766;2023-02-28T13:04:27;102998.06;;;5.90;38.88
63281;BME280;49406;51.044;3.766;2023-02-28T13:07:32;102996.51;;;5.94;37.64
63281;BME280;49406;51.044;3.766;2023-02-28T13:10:15;102990.30;;;5.90;38.18
63281;BME280;49406;51.044;3.766;2023-02-28T13:12:53;103000.92;;;5.85;37.97
63281;BME280;49406;51.044;3.766;2023-02-28T13:15:30;102995.86;;;5.73;37.87
63281;BME280;49406;51.044;3.766;2023-02-28T13:18:32;103000.80;;;5.80;38.27
63281;BME280;49406;51.044;3.766;2023-02-28T13:21:22;103000.73;;;5.85;37.59
63281;BME280;49406;51.044;3.766;2023-02-28T13:24:07;102996.48;;;5.81;38.17
63281;BME280;49406;51.044;3.766;2023-02-28T13:33:26;102991.95;;;5.78;37.03
63281;BME280;49406;51.044;3.766;2023-02-28T13:36:24;102986.75;;;5.81;37.47
63281;BME280;49406;51.044;3.766;2023-02-28T13:39:00;102987.11;;;5.81;38.00
63281;BME280;49406;51.044;3.766;2023-02-28T13:41:47;102984.70;;;5.78;37.79
63281;BME280;49406;51.044;3.766;2023-02-28T13:44:23;102981.43;;;5.73;37.42
63281;BME280;49406;51.044;3.766;2023-02-28T13:50:23;102979.36;;;5.79;37.94
63281;BME280;49406;51.044;3.766;2023-02-28T13:56:00;102988.31;;;5.81;37.53
63281;BME280;49406;51.044;3.766;2023-02-28T13:58:53;102984.35;;;5.67;37.62
63281;BME280;49406;51.044;3.766;2023-02-28T14:01:36;102988.52;;;5.56;37.15
63281;BME280;49406;51.044;3.766;2023-02-28T14:04:56;102986.39;;;5.58;37.73
63281;BME280;49406;51.044;3.766;2023-02-28T14:07:40;102988.98;;;5.60;37.63
63281;BME280;49406;51.044;3.766;2023-02-28T14:10:36;102988.64;;;5.55;37.90
63281;BME280;49406;51.044;3.766;2023-02-28T14:13:38;102985.16;;;5.55;38.24
63281;BME280;49406;51.044;3.766;2023-02-28T14:16:19;102977.46;;;5.60;38.59